Burlington, Oregon
Current Conditions -  °F | °C
As of 11:53 AM on Sunday 23 Nov 2014 (Local Time) from KHIO Reporting Station
Overcast Overcast  
Wind Chill: 50°   Ceiling: 4200
Heat Index: 50°   Visibility: 10mi
Dew Point: 46°   Wind: 14mph
Humidity: 86%   Direction: 170°S
Pressure: 30.23"   Gusts: NA
Location:  45.6308°N, 122.858°W
Report Text: KHIO 231953Z 17012KT 10SM BKN042 OVC050 10/08 A3023 RMK AO2 LTG DSNT W AND NW RAB22E52 SLP237 P0000 T01000078
Loading
Personal Weather Stations






























Interactive Weather Map New forecast layout! Learn more

10-Day Weather Forecast

Advertisements
Track Severe Weather on mobile